Time;durP1;ratioP1;P1;durP2;ratioP2;P2;SDS_P1;SDS_P2;PMS_P1;PMS_P2;Temp;Humidity;BMP_temperature;BMP_pressure;BME280_temperature;BME280_humidity;BME280_pressure;Samples;Min_cycle;Max_cycle;Signal;HPM_P1;HPM_P2
2024/04/02 00:02:08;;;;;;;0.63;0.33;;;10.90;98.60;;;11.41;58.68;95477.00;2331169;57;26130;-78
2024/04/02 00:04:34;;;;;;;0.30;0.17;;;10.80;99.90;;;11.30;61.32;95494.00;2332260;57;26226;-77
2024/04/02 00:07:01;;;;;;;0.10;0.10;;;10.70;99.90;;;11.33;62.43;95515.00;2332253;57;26135;-77
2024/04/02 00:09:27;;;;;;;0.10;0.10;;;10.70;99.90;;;11.21;66.22;95507.00;2332490;57;26142;-77
2024/04/02 00:11:54;;;;;;;0.10;0.10;;;10.60;99.90;;;11.12;63.17;95517.00;2332448;57;26648;-77
2024/04/02 00:14:20;;;;;;;0.27;0.17;;;10.70;99.70;;;11.24;60.11;95509.00;2332306;57;26774;-78
2024/04/02 00:16:47;;;;;;;0.10;0.10;;;10.70;99.90;;;11.28;60.59;95532.00;2332192;57;26190;-79
2024/04/02 00:19:14;;;;;;;0.10;0.10;;;10.70;99.90;;;11.26;60.78;95523.00;2332627;57;26135;-77
2024/04/02 00:21:41;;;;;;;0.10;0.10;;;10.70;99.90;;;11.31;60.50;95522.00;2332400;57;26642;-78
2024/04/02 00:24:07;;;;;;;0.20;0.20;;;10.80;99.80;;;11.33;60.38;95526.00;2332491;57;26127;-78
2024/04/02 00:26:34;;;;;;;0.20;0.20;;;10.80;99.90;;;11.41;63.04;95528.00;2332554;57;26607;-78
2024/04/02 00:29:01;;;;;;;0.20;0.20;;;10.70;99.90;;;11.18;66.00;95529.00;2331930;57;26593;-78
2024/04/02 00:31:28;;;;;;;0.30;0.30;;;10.60;99.90;;;11.05;65.61;95535.00;2332625;57;26564;-77
2024/04/02 00:33:54;;;;;;;0.37;0.37;;;10.40;99.90;;;10.97;68.05;95536.00;2332283;57;26178;-77
2024/04/02 00:36:21;;;;;;;0.33;0.20;;;10.30;99.90;;;10.66;69.77;95548.00;2332479;57;26143;-76
2024/04/02 00:38:47;;;;;;;0.10;0.10;;;10.20;99.90;;;10.71;69.33;95554.00;2332073;57;26063;-78
2024/04/02 00:41:14;;;;;;;0.10;0.10;;;10.20;99.90;;;10.77;69.14;95549.00;2332345;57;26190;-77
2024/04/02 00:43:40;;;;;;;0.10;0.10;;;10.10;99.90;;;10.66;69.96;95556.00;2332321;57;26114;-78
2024/04/02 00:46:07;;;;;;;0.43;0.27;;;10.10;99.90;;;10.60;68.72;95555.00;2332245;57;26727;-76
2024/04/02 00:48:34;;;;;;;0.10;0.10;;;10.00;99.90;;;10.36;69.60;95565.00;2332069;57;26251;-78
2024/04/02 00:51:01;;;;;;;0.50;0.23;;;9.90;99.90;;;10.38;69.98;95573.00;2332108;57;26075;-77
2024/04/02 00:53:28;;;;;;;0.13;0.13;;;9.90;99.90;;;10.32;70.82;95568.00;2332343;57;26206;-77
2024/04/02 00:55:57;;;;;;;0.00;0.00;;;9.90;99.90;;;10.39;70.84;95565.00;2332223;57;26652;-78
2024/04/02 00:58:25;;;;;;;0.10;0.10;;;9.90;99.90;;;10.45;70.40;95569.00;2332175;57;26118;-79
2024/04/02 01:00:55;;;;;;;0.10;0.10;;;9.90;99.90;;;10.32;71.63;95578.00;2331925;57;26631;-78
2024/04/02 01:03:24;;;;;;;0.10;0.10;;;9.90;99.90;;;10.42;70.92;95577.00;2332609;57;26143;-76
2024/04/02 01:05:51;;;;;;;0.20;0.20;;;9.90;99.90;;;10.50;69.65;95571.00;2332336;57;26550;-78
2024/04/02 01:08:18;;;;;;;0.77;0.40;;;9.90;99.90;;;10.36;70.28;95576.00;2332491;57;26142;-77
2024/04/02 01:10:45;;;;;;;0.30;0.17;;;9.80;99.90;;;10.25;71.80;95574.00;2332036;57;26135;-76
2024/04/02 01:13:12;;;;;;;0.30;0.30;;;9.80;99.90;;;10.25;71.75;95569.00;2332274;57;26550;-77
2024/04/02 01:15:38;;;;;;;0.10;0.10;;;9.70;99.90;;;10.09;72.60;95566.00;2331489;57;26577;-77
2024/04/02 01:18:05;;;;;;;0.10;0.10;;;9.70;99.90;;;10.12;72.39;95565.00;2332210;57;26564;-77
2024/04/02 01:20:32;;;;;;;0.30;0.30;;;9.70;99.90;;;10.03;73.94;95572.00;2332246;57;26087;-77
2024/04/02 01:22:58;;;;;;;0.10;0.10;;;9.70;99.90;;;10.22;73.55;95577.00;2332324;57;26640;-76
2024/04/02 01:25:25;;;;;;;0.10;0.10;;;9.70;99.90;;;10.16;74.00;95582.00;2332316;57;26147;-78
2024/04/02 01:27:51;;;;;;;0.10;0.10;;;9.60;99.90;;;10.19;73.75;95582.00;2332227;57;26693;-78
2024/04/02 01:30:18;;;;;;;0.10;0.10;;;9.50;99.90;;;9.88;75.34;95585.00;2332711;57;26719;-78
2024/04/02 01:32:45;;;;;;;0.30;0.30;;;9.50;99.90;;;9.93;75.35;95586.00;2332061;57;26095;-77
2024/04/02 01:35:14;;;;;;;0.40;0.20;;;9.40;99.90;;;9.94;74.79;95584.00;2332266;57;26193;-76
2024/04/02 01:37:41;;;;;;;0.20;0.20;;;9.40;99.90;;;9.91;74.83;95587.00;2332008;57;26679;-77
2024/04/02 01:40:08;;;;;;;0.83;0.30;;;9.40;99.90;;;9.89;74.95;95582.00;2332210;57;26099;-78
2024/04/02 01:42:35;;;;;;;0.93;0.20;;;9.40;99.90;;;9.92;75.23;95586.00;2332258;57;26130;-78
2024/04/02 01:45:03;;;;;;;0.40;0.30;;;9.30;99.90;;;9.73;75.67;95591.00;2332075;57;26661;-78
2024/04/02 01:47:30;;;;;;;0.10;0.10;;;9.30;99.90;;;9.73;75.85;95577.00;2332350;57;26079;-77
2024/04/02 01:49:56;;;;;;;2.03;0.40;;;9.20;99.90;;;9.60;73.08;95578.00;2331945;57;26119;-78
2024/04/02 01:52:23;;;;;;;0.43;0.37;;;9.10;99.90;;;9.65;73.32;95585.00;2332177;57;26095;-77
2024/04/02 01:54:49;;;;;;;1.20;0.40;;;9.10;99.90;;;9.50;74.00;95585.00;2331852;57;26647;-78
2024/04/02 01:57:16;;;;;;;0.20;0.20;;;9.20;99.90;;;9.49;74.87;95588.00;2332225;57;26171;-77
2024/04/02 01:59:42;;;;;;;5.53;0.30;;;9.20;99.90;;;9.61;75.28;95585.00;2331649;57;26194;-77
2024/04/02 02:02:09;;;;;;;0.50;0.30;;;9.20;99.90;;;9.54;75.14;95588.00;2332236;57;26531;-76
2024/04/02 02:04:36;;;;;;;0.30;0.30;;;9.10;99.90;;;9.54;75.56;95596.00;2332041;57;26652;-77
2024/04/02 02:07:02;;;;;;;0.20;0.20;;;9.10;99.90;;;9.56;75.35;95599.00;2331680;57;26588;-76
2024/04/02 02:09:29;;;;;;;0.33;0.33;;;8.90;99.90;;;9.41;75.02;95596.00;2332274;57;26537;-78
2024/04/02 02:11:55;;;;;;;0.27;0.27;;;8.80;99.90;;;9.41;75.29;95596.00;2332420;57;26203;-77
2024/04/02 02:14:22;;;;;;;0.73;0.33;;;8.80;99.90;;;9.05;76.61;95606.00;2331484;57;26135;-76
2024/04/02 02:16:51;;;;;;;0.27;0.20;;;8.80;99.90;;;9.10;76.62;95609.00;2331858;57;26071;-78
2024/04/02 02:19:18;;;;;;;0.53;0.20;;;8.90;99.90;;;9.24;76.40;95610.00;2331134;57;26214;-78
2024/04/02 02:21:47;;;;;;;0.20;0.20;;;9.00;99.90;;;9.30;76.42;95606.00;2331571;57;26165;-76
2024/04/02 02:24:14;;;;;;;0.10;0.10;;;8.90;99.90;;;9.22;76.65;95605.00;2331457;57;26126;-76
2024/04/02 02:26:40;;;;;;;0.23;0.23;;;8.90;99.90;;;9.21;76.58;95610.00;2332027;57;26217;-76
2024/04/02 02:29:07;;;;;;;0.77;0.27;;;8.80;99.90;;;9.21;76.87;95616.00;2331861;57;26261;-78
2024/04/02 02:31:35;;;;;;;0.30;0.30;;;8.90;99.90;;;9.27;76.19;95617.00;2331764;57;26142;-77
2024/04/02 02:34:03;;;;;;;0.30;0.13;;;8.90;99.90;;;9.27;76.37;95623.00;2331750;57;26632;-78
2024/04/02 02:36:30;;;;;;;0.20;0.20;;;8.90;99.90;;;9.43;75.37;95611.00;2331749;57;26131;-77
2024/04/02 02:38:57;;;;;;;1.60;0.10;;;8.80;99.90;;;8.95;75.86;95618.00;2331422;57;26719;-76
2024/04/02 02:41:23;;;;;;;0.57;0.23;;;8.70;99.90;;;9.22;74.90;95626.00;2331432;57;27186;-78
2024/04/02 02:43:50;;;;;;;0.20;0.20;;;8.60;99.90;;;9.10;75.52;95639.00;2330763;57;26504;-78
2024/04/02 02:46:16;;;;;;;0.33;0.33;;;8.50;99.90;;;8.94;76.04;95637.00;2330930;57;26123;-78
2024/04/02 02:48:43;;;;;;;0.10;0.10;;;8.60;99.90;;;9.06;75.65;95632.00;2330184;57;26119;-77
2024/04/02 02:51:09;;;;;;;0.23;0.23;;;8.70;99.90;;;9.15;75.70;95646.00;2330733;57;26131;-76
2024/04/02 02:53:36;;;;;;;0.13;0.13;;;8.70;99.90;;;9.05;76.16;95641.00;2331051;57;26254;-76
2024/04/02 02:56:03;;;;;;;0.20;0.20;;;8.60;99.90;;;8.91;75.98;95645.00;2330926;57;26132;-78
2024/04/02 02:58:29;;;;;;;0.20;0.20;;;8.50;99.90;;;8.73;76.79;95655.00;2330806;57;26178;-78
2024/04/02 03:00:56;;;;;;;0.30;0.30;;;8.60;99.90;;;9.03;74.79;95656.00;2331129;57;26134;-78
2024/04/02 03:03:22;;;;;;;2.00;0.43;;;8.60;99.90;;;8.86;75.52;95670.00;2331027;57;26122;-77
2024/04/02 03:05:56;;;;;;;0.20;0.20;;;8.50;99.90;;;8.73;75.97;95671.00;2330836;57;26585;-76
2024/04/02 03:08:23;;;;;;;0.30;0.30;;;8.30;99.90;;;8.67;74.96;95675.00;2330965;57;26114;-77
2024/04/02 03:11:23;;;;;;;0.20;0.20;;;8.20;99.90;;;8.44;75.99;95673.00;2330329;57;26115;-78
2024/04/02 03:13:49;;;;;;;0.10;0.10;;;8.00;99.90;;;8.30;76.47;95679.00;2331033;57;26119;-77
2024/04/02 03:16:20;;;;;;;0.20;0.20;;;7.90;99.90;;;8.32;76.41;95685.00;2331393;57;26162;-77
2024/04/02 03:18:47;;;;;;;0.23;0.20;;;7.90;99.90;;;8.14;77.30;95689.00;2331033;57;26141;-76
2024/04/02 03:21:15;;;;;;;0.20;0.20;;;8.00;99.90;;;8.13;76.95;95690.00;2331164;57;26217;-78
2024/04/02 03:23:42;;;;;;;2.10;0.40;;;7.90;99.90;;;8.06;77.15;95695.00;2330758;57;26934;-78
2024/04/02 03:26:10;;;;;;;0.20;0.20;;;8.00;99.90;;;8.19;76.78;95695.00;2330827;57;26582;-77
2024/04/02 03:28:39;;;;;;;0.67;0.13;;;7.90;99.90;;;8.17;76.93;95699.00;2330780;57;26106;-76
2024/04/02 03:31:08;;;;;;;0.10;0.10;;;7.90;99.90;;;8.32;76.76;95702.00;2330784;57;26522;-78
2024/04/02 03:33:34;;;;;;;3.00;0.30;;;7.90;99.90;;;8.25;76.24;95706.00;2330267;57;26198;-77
2024/04/02 03:36:05;;;;;;;2.37;0.33;;;7.70;99.90;;;7.98;76.75;95712.00;2330935;57;26114;-76
2024/04/02 03:38:35;;;;;;;0.50;0.50;;;7.70;99.90;;;7.98;76.47;95705.00;2330864;57;26530;-77
2024/04/02 03:41:13;;;;;;;0.30;0.30;;;7.70;99.90;;;7.93;77.85;95714.00;2329405;57;27283;-77
2024/04/02 03:43:42;;;;;;;3.20;0.73;;;7.80;99.90;;;8.01;77.30;95716.00;2330463;57;26139;-77
2024/04/02 03:46:10;;;;;;;4.83;0.27;;;7.60;99.90;;;7.92;77.03;95718.00;2330556;57;26767;-76
2024/04/02 03:48:37;;;;;;;0.77;0.40;;;7.60;99.90;;;7.96;77.68;95724.00;2330228;57;26777;-77
2024/04/02 03:51:04;;;;;;;1.50;0.33;;;7.70;99.90;;;8.25;76.67;95727.00;2330829;57;26588;-77
2024/04/02 03:53:31;;;;;;;1.33;0.37;;;7.80;99.90;;;8.05;77.61;95738.00;2330050;57;26604;-77
2024/04/02 03:56:03;;;;;;;5.07;0.40;;;7.70;99.90;;;8.03;77.76;95736.00;2331181;57;26154;-78
2024/04/02 03:58:30;;;;;;;3.00;0.40;;;7.60;99.90;;;7.83;76.81;95740.00;2331152;57;26829;-76
2024/04/02 04:00:58;;;;;;;1.67;0.33;;;7.50;99.90;;;7.92;76.75;95744.00;2330714;57;26702;-76
2024/04/02 04:03:26;;;;;;;10.97;0.40;;;7.60;99.90;;;7.92;77.14;95744.00;2330865;57;26198;-77
2024/04/02 04:06:04;;;;;;;0.93;0.40;;;7.50;99.90;;;7.80;76.54;95741.00;2330462;57;26126;-77
2024/04/02 04:08:32;;;;;;;6.00;0.60;;;7.60;99.90;;;7.83;77.57;95751.00;2329766;57;26174;-77
2024/04/02 04:10:59;;;;;;;1.90;0.50;;;7.50;99.90;;;7.65;77.65;95755.00;2330805;57;26249;-76
2024/04/02 04:13:26;;;;;;;1.60;0.30;;;7.30;99.90;;;7.56;76.91;95761.00;2331038;57;26704;-77
2024/04/02 04:15:59;;;;;;;2.37;0.70;;;7.40;99.90;;;7.77;77.08;95758.00;2330810;57;26982;-78
2024/04/02 04:18:27;;;;;;;3.03;1.13;;;7.40;99.90;;;7.70;76.69;95755.00;2330910;57;26173;-76
2024/04/02 04:21:00;;;;;;;2.17;0.87;;;7.40;99.90;;;7.75;78.16;95770.00;2330762;57;26576;-76
2024/04/02 04:23:27;;;;;;;0.30;0.30;;;7.50;99.90;;;7.79;77.66;95774.00;2330882;57;26142;-77
2024/04/02 04:26:06;;;;;;;1.03;0.40;;;7.50;99.90;;;7.68;77.44;95771.00;2329950;57;26195;-77
2024/04/02 04:28:32;;;;;;;7.30;0.73;;;7.30;99.90;;;7.51;76.07;95778.00;2330032;57;26111;-78
2024/04/02 04:31:02;;;;;;;1.47;0.93;;;7.20;99.90;;;7.47;77.38;95774.00;2328796;57;26491;-77
2024/04/02 04:33:31;;;;;;;3.53;0.80;;;7.30;99.90;;;7.47;78.38;95774.00;2329438;57;26623;-78
2024/04/02 04:35:58;;;;;;;6.03;0.70;;;7.40;99.90;;;7.57;78.42;95786.00;2330231;57;26899;-78
2024/04/02 04:38:28;;;;;;;3.30;0.77;;;7.40;99.90;;;7.74;77.50;95785.00;2330215;57;26229;-77
2024/04/02 04:40:55;;;;;;;2.93;1.07;;;7.40;99.90;;;7.65;76.46;95782.00;2330382;57;26134;-78
2024/04/02 04:43:22;;;;;;;1.83;0.83;;;7.40;99.90;;;7.62;76.77;95793.00;2330570;57;26139;-77
2024/04/02 04:46:03;;;;;;;2.70;1.03;;;7.30;99.90;;;7.52;77.40;95793.00;2330518;57;26118;-78
2024/04/02 04:48:31;;;;;;;3.20;0.30;;;7.30;99.90;;;7.61;77.41;95799.00;2330138;57;26071;-77
2024/04/02 04:51:00;;;;;;;5.57;0.67;;;7.20;99.90;;;7.49;76.67;95823.00;2329819;57;26097;-78
2024/04/02 04:53:28;;;;;;;1.47;0.80;;;7.20;99.90;;;7.61;76.66;95812.00;2328971;57;26571;-77
2024/04/02 04:56:05;;;;;;;2.50;1.23;;;7.30;99.90;;;7.54;77.41;95812.00;2328909;57;26520;-76
2024/04/02 04:58:34;;;;;;;1.03;0.67;;;7.40;99.90;;;7.65;77.47;95819.00;2329293;57;26805;-77
2024/04/02 05:01:03;;;;;;;4.13;0.80;;;7.50;99.90;;;7.71;75.97;95833.00;2329203;57;26189;-76
2024/04/02 05:03:30;;;;;;;2.27;1.10;;;7.40;99.90;;;7.64;76.96;95843.00;2327563;57;26121;-76
2024/04/02 05:06:08;;;;;;;9.97;1.93;;;7.50;99.90;;;7.91;76.26;95828.00;2327953;57;27051;-78
2024/04/02 05:08:38;;;;;;;3.33;1.43;;;7.50;99.90;;;7.83;76.53;95841.00;2328481;57;26075;-77
2024/04/02 05:11:07;;;;;;;3.70;1.23;;;7.50;99.90;;;7.87;76.56;95845.00;2328004;57;26155;-78
2024/04/02 05:13:34;;;;;;;3.03;0.90;;;7.50;99.90;;;7.85;77.62;95855.00;2329256;57;26504;-76
2024/04/02 05:16:04;;;;;;;1.87;1.03;;;7.60;99.90;;;7.96;76.83;95857.00;2329029;57;26099;-77
2024/04/02 05:18:30;;;;;;;0.87;0.60;;;7.60;99.90;;;7.97;76.69;95861.00;2329386;57;26158;-78
2024/04/02 05:20:57;;;;;;;3.57;0.90;;;7.60;99.90;;;7.97;76.04;95866.00;2329763;57;26143;-76
2024/04/02 05:23:26;;;;;;;1.10;0.50;;;7.60;99.90;;;7.89;76.21;95872.00;2328290;57;26133;-78
2024/04/02 05:26:00;;;;;;;8.73;2.53;;;7.60;99.90;;;7.87;76.66;95877.00;2327880;57;26520;-77
2024/04/02 05:28:26;;;;;;;3.23;1.30;;;7.40;99.90;;;7.74;76.66;95870.00;2329388;57;26556;-78
2024/04/02 05:30:54;;;;;;;2.47;0.97;;;7.50;99.90;;;7.81;77.26;95886.00;2329251;57;26276;-76
2024/04/02 05:33:20;;;;;;;10.13;2.97;;;7.50;99.90;;;7.82;76.86;95893.00;2329603;57;26118;-77
2024/04/02 05:35:47;;;;;;;21.47;5.00;;;7.50;99.90;;;7.88;76.78;95898.00;2328312;57;26147;-78
2024/04/02 05:38:14;;;;;;;22.33;3.97;;;7.60;99.90;;;7.93;75.88;95897.00;2330417;57;26531;-76
2024/04/02 05:40:40;;;;;;;11.97;3.83;;;7.60;99.90;;;7.97;75.90;95898.00;2328843;57;26903;-78
2024/04/02 05:43:07;;;;;;;18.63;1.50;;;7.60;99.90;;;7.92;76.24;95904.00;2329343;57;26749;-77
2024/04/02 05:45:33;;;;;;;1.13;0.83;;;7.60;99.90;;;8.00;75.63;95901.00;2327717;57;26138;-78
2024/04/02 05:48:00;;;;;;;2.33;0.90;;;7.60;99.90;;;8.09;75.49;95909.00;2327232;57;26175;-78
2024/04/02 05:50:26;;;;;;;17.03;2.17;;;7.60;99.90;;;7.90;76.32;95924.00;2328156;57;26185;-78
2024/04/02 05:52:54;;;;;;;10.00;2.00;;;7.60;99.90;;;7.91;76.28;95915.00;2327350;57;26273;-77
2024/04/02 05:55:21;;;;;;;6.33;1.77;;;7.80;99.90;;;8.18;76.71;95919.00;2328532;57;26233;-79
2024/04/02 05:57:47;;;;;;;9.80;3.10;;;8.00;99.90;;;8.33;76.64;95927.00;2328294;57;26158;-77
2024/04/02 06:00:14;;;;;;;14.90;4.47;;;8.20;99.90;;;8.65;75.74;95921.00;2328758;57;26111;-78
2024/04/02 06:02:43;;;;;;;23.17;5.00;;;8.50;99.90;;;9.04;74.68;95926.00;2328079;57;26217;-79
2024/04/02 06:05:11;;;;;;;29.30;6.87;;;8.90;99.90;;;9.42;73.47;95922.00;2327875;57;27007;-79
2024/04/02 06:07:39;;;;;;;53.57;11.07;;;9.30;99.90;;;10.01;70.28;95926.00;2328690;57;26122;-79
2024/04/02 06:10:05;;;;;;;36.17;8.57;;;9.40;99.90;;;10.03;69.00;95924.00;2329352;57;26222;-78
2024/04/02 06:12:32;;;;;;;30.57;6.93;;;9.40;99.90;;;10.19;68.15;95922.00;2327575;57;26616;-77
2024/04/02 06:14:59;;;;;;;31.07;8.90;;;9.50;99.90;;;10.23;66.68;95928.00;2328724;57;26625;-77
2024/04/02 06:17:25;;;;;;;29.20;8.00;;;9.70;99.90;;;10.34;66.73;95932.00;2328517;57;26678;-78
2024/04/02 06:19:52;;;;;;;14.50;5.57;;;9.90;99.90;;;10.64;67.84;95921.00;2328271;57;26605;-78
2024/04/02 06:22:26;;;;;;;19.23;5.67;;;10.10;99.90;;;10.65;67.85;95926.00;2329192;57;26190;-79
2024/04/02 06:24:53;;;;;;;12.30;4.57;;;10.20;99.90;;;10.84;67.33;95929.00;2327225;57;26213;-77
2024/04/02 06:27:20;;;;;;;9.47;4.03;;;10.30;99.90;;;11.00;67.80;95932.00;2328283;57;26638;-79
2024/04/02 06:29:46;;;;;;;25.50;6.20;;;10.50;99.90;;;11.33;64.38;95939.00;2328721;57;26091;-79
2024/04/02 06:32:13;;;;;;;18.70;4.93;;;10.70;99.90;;;11.58;62.54;95932.00;2328909;57;26188;-80
2024/04/02 06:34:41;;;;;;;22.70;5.87;;;10.80;99.90;;;11.68;63.26;95936.00;2330151;57;26540;-77
2024/04/02 06:37:10;;;;;;;27.47;7.77;;;10.90;99.90;;;11.69;62.33;95938.00;2328520;57;26262;-79
2024/04/02 06:39:37;;;;;;;14.63;4.63;;;11.00;99.90;;;11.97;62.59;95947.00;2328251;57;26159;-77
2024/04/02 06:42:04;;;;;;;13.27;3.30;;;11.20;99.90;;;12.12;60.96;95936.00;2327950;57;26582;-78
2024/04/02 06:44:30;;;;;;;9.73;3.80;;;11.30;99.90;;;12.14;59.90;95927.00;2326821;57;26606;-79
2024/04/02 06:46:57;;;;;;;12.53;4.20;;;11.40;99.90;;;12.14;61.45;95937.00;2327769;57;26443;-76
2024/04/02 06:49:24;;;;;;;11.77;3.70;;;11.50;99.90;;;12.32;59.78;95936.00;2326944;57;26653;-78
2024/04/02 06:51:51;;;;;;;10.17;3.27;;;11.80;99.90;;;12.73;60.58;95941.00;2326962;57;26462;-78
2024/04/02 06:54:19;;;;;;;10.77;2.67;;;12.10;99.90;;;13.12;58.04;95936.00;2326277;57;26131;-80
2024/04/02 06:56:45;;;;;;;9.53;3.33;;;12.40;99.90;;;13.47;57.05;95943.00;2328256;57;26663;-80
2024/04/02 06:59:12;;;;;;;16.17;3.17;;;12.60;99.90;;;13.61;56.77;95947.00;2328151;57;26623;-78
2024/04/02 07:01:38;;;;;;;10.37;3.07;;;12.90;99.90;;;13.96;57.74;95956.00;2329336;57;26194;-78
2024/04/02 07:04:07;;;;;;;7.70;2.90;;;13.30;99.90;;;14.33;57.80;95949.00;2327032;57;26511;-75
2024/04/02 07:06:34;;;;;;;8.83;2.90;;;13.70;99.90;;;14.79;56.68;95955.00;2327585;57;26143;-77
2024/04/02 07:09:00;;;;;;;10.05;2.87;;;13.90;99.40;;;14.94;54.24;95948.00;2329335;57;26139;-79
2024/04/02 07:11:27;;;;;;;4.63;1.93;;;13.80;99.80;;;14.93;55.23;95956.00;2329554;57;26103;-77
2024/04/02 07:13:53;;;;;;;6.40;1.90;;;13.70;99.60;;;14.92;54.65;95958.00;2327999;57;27023;-78
2024/04/02 07:16:20;;;;;;;5.67;1.53;;;13.70;99.60;;;14.83;54.83;95965.00;2326764;57;26834;-76
2024/04/02 07:18:47;;;;;;;2.83;0.80;;;13.70;98.10;;;14.75;52.46;95962.00;2327185;57;26526;-78
2024/04/02 07:21:14;;;;;;;6.83;1.20;;;13.60;97.20;;;14.76;51.14;95964.00;2328612;57;26934;-76
2024/04/02 07:23:41;;;;;;;5.32;0.95;;;13.50;96.90;;;14.64;50.91;95973.00;2328030;57;26095;-78
2024/04/02 07:26:08;;;;;;;1.50;0.57;;;13.60;98.20;;;14.74;53.20;95977.00;2326383;57;27273;-77
2024/04/02 07:28:34;;;;;;;0.50;0.50;;;13.70;97.70;;;14.70;52.46;95981.00;2325807;57;26557;-75
2024/04/02 07:31:01;;;;;;;0.70;0.60;;;13.70;96.90;;;14.78;50.98;95981.00;2328228;57;26210;-78
2024/04/02 07:33:28;;;;;;;2.83;0.83;;;13.80;96.20;;;14.84;49.95;95984.00;2327776;57;26629;-76
2024/04/02 07:35:57;;;;;;;2.30;1.07;;;14.00;96.70;;;15.14;50.48;95986.00;2328326;57;26628;-78
2024/04/02 07:38:24;;;;;;;2.57;0.90;;;14.00;95.60;;;15.10;49.11;95988.00;2328872;57;26663;-75
2024/04/02 07:40:50;;;;;;;3.05;0.70;;;14.00;96.10;;;15.11;50.05;95998.00;2328469;57;26696;-79
2024/04/02 07:43:17;;;;;;;3.17;0.90;;;14.00;96.20;;;15.10;50.13;96002.00;2327719;57;26135;-77
2024/04/02 07:45:53;;;;;;;2.63;0.80;;;14.00;96.00;;;15.07;50.08;95998.00;2329500;57;26194;-80
2024/04/02 07:48:23;;;;;;;6.43;0.87;;;14.00;96.00;;;15.17;50.12;96010.00;2329987;57;26700;-77
2024/04/02 07:50:49;;;;;;;1.10;0.67;;;13.90;95.60;;;14.98;49.69;96010.00;2328470;57;26111;-79
2024/04/02 07:53:16;;;;;;;1.73;0.80;;;13.90;95.90;;;14.90;50.17;96010.00;2328975;57;26178;-77
2024/04/02 07:55:42;;;;;;;1.92;0.82;;;13.80;96.20;;;14.86;50.74;96020.00;2329357;57;26980;-76
2024/04/02 07:58:10;;;;;;;7.53;1.25;;;14.00;95.90;;;15.10;50.06;96021.00;2328345;57;26335;-77
2024/04/02 08:00:37;;;;;;;2.58;0.85;;;14.30;94.70;;;15.49;47.92;96014.00;2327839;57;26770;-75
2024/04/02 08:03:05;;;;;;;4.07;1.65;;;14.80;93.90;;;15.93;46.61;96008.00;2327632;57;26661;-76
2024/04/02 08:05:31;;;;;;;10.02;1.27;;;15.10;93.90;;;16.37;46.27;96005.00;2328530;57;26538;-75
2024/04/02 08:07:58;;;;;;;16.67;3.85;;;15.50;92.90;;;16.71;44.68;96011.00;2328256;57;26542;-77
2024/04/02 08:10:25;;;;;;;2.08;0.85;;;15.70;92.30;;;17.05;43.64;96003.00;2329410;57;26841;-78
2024/04/02 08:12:51;;;;;;;2.87;0.93;;;15.90;92.50;;;17.18;44.23;96003.00;2329219;57;26103;-79
2024/04/02 08:15:18;;;;;;;1.37;0.40;;;16.10;91.00;;;17.44;41.95;96010.00;2329203;57;26782;-77
2024/04/02 08:17:44;;;;;;;0.93;0.40;;;16.20;90.40;;;17.53;40.97;96013.00;2329454;57;26197;-76
2024/04/02 08:20:11;;;;;;;0.47;0.40;;;16.30;88.90;;;17.63;39.93;96009.00;2329224;57;26617;-75
2024/04/02 08:22:38;;;;;;;0.20;0.20;;;16.70;89.00;;;18.15;39.78;96010.00;2329108;57;26135;-77
2024/04/02 08:25:07;;;;;;;0.20;0.20;;;16.80;89.20;;;18.10;40.36;96011.00;2328546;57;26107;-77
2024/04/02 08:27:34;;;;;;;3.15;0.45;;;16.80;87.30;;;18.20;39.11;96004.00;2326475;57;26647;-74
2024/04/02 08:30:00;;;;;;;1.08;0.60;;;17.00;88.30;;;18.24;39.97;96012.00;2326404;57;26676;-78
2024/04/02 08:32:28;;;;;;;0.30;0.30;;;17.10;85.80;;;18.25;38.59;96007.00;2326196;57;26079;-74
2024/04/02 08:34:54;;;;;;;0.43;0.32;;;17.10;84.90;;;18.34;37.98;96010.00;2327355;57;26670;-79
2024/04/02 08:37:21;;;;;;;0.50;0.25;;;17.20;81.30;;;18.40;35.91;96006.00;2326388;57;26759;-79
2024/04/02 08:39:47;;;;;;;0.40;0.40;;;17.10;81.90;;;18.34;36.35;96003.00;2326864;57;26095;-76
2024/04/02 08:42:14;;;;;;;0.20;0.20;;;17.30;82.00;;;18.63;36.66;96013.00;2328032;57;26135;-77
2024/04/02 08:44:50;;;;;;;0.22;0.22;;;17.60;81.10;;;18.99;35.84;96013.00;2328053;57;26128;-78
2024/04/02 08:47:17;;;;;;;1.60;0.43;;;17.80;76.20;;;19.12;33.22;96025.00;2329003;57;26127;-78
2024/04/02 08:49:46;;;;;;;15.00;0.62;;;17.80;73.40;;;18.90;32.16;96028.00;2328532;57;26831;-74
2024/04/02 08:52:13;;;;;;;0.22;0.20;;;17.50;74.40;;;18.43;32.93;96032.00;2327858;57;26114;-75
2024/04/02 08:54:39;;;;;;;0.20;0.20;;;17.00;71.90;;;17.63;32.67;96044.00;2328909;57;26092;-75
2024/04/02 08:57:07;;;;;;;0.98;0.10;;;17.00;75.50;;;17.75;34.51;96028.00;2328920;57;26270;-78
2024/04/02 08:59:39;;;;;;;0.10;0.10;;;16.90;73.20;;;17.82;33.25;96032.00;2329757;57;26706;-77
2024/04/02 09:02:09;;;;;;;0.20;0.20;;;16.80;71.90;;;17.46;33.02;96039.00;2329650;57;26131;-78
2024/04/02 09:04:36;;;;;;;0.25;0.15;;;16.70;71.60;;;17.38;32.51;96041.00;2329690;57;26585;-77
2024/04/02 09:07:02;;;;;;;0.22;0.20;;;16.90;76.70;;;17.81;36.17;96055.00;2329580;57;26543;-76
2024/04/02 09:09:29;;;;;;;0.17;0.17;;;17.20;74.90;;;18.11;34.57;96040.00;2329262;57;26675;-76
2024/04/02 09:11:55;;;;;;;0.10;0.10;;;17.70;74.20;;;18.55;33.75;96032.00;2329109;57;26473;-76
2024/04/02 09:14:23;;;;;;;0.10;0.10;;;18.00;71.30;;;18.77;31.97;96046.00;2329402;57;26750;-79
2024/04/02 09:16:52;;;;;;;0.10;0.10;;;18.10;73.50;;;19.04;33.49;96045.00;2329469;57;26130;-78
2024/04/02 09:19:19;;;;;;;0.05;0.05;;;17.60;69.00;;;18.08;31.70;96051.00;2329570;57;26563;-76
2024/04/02 09:21:46;;;;;;;1.73;0.40;;;16.90;71.10;;;17.18;33.32;96063.00;2329746;57;26082;-77
2024/04/02 09:24:13;;;;;;;0.20;0.10;;;16.30;71.60;;;16.61;33.99;96051.00;2330120;57;26194;-79
2024/04/02 09:26:39;;;;;;;0.35;0.30;;;16.00;72.80;;;16.36;34.86;96055.00;2329123;57;26554;-78
2024/04/02 09:29:06;;;;;;;0.50;0.20;;;16.00;74.00;;;16.40;35.48;96050.00;2329154;57;26190;-78
2024/04/02 09:31:33;;;;;;;0.17;0.17;;;16.20;74.90;;;16.88;35.53;96061.00;2330026;57;26696;-78
2024/04/02 09:34:07;;;;;;;0.10;0.10;;;16.50;74.70;;;17.29;35.17;96058.00;2329891;57;26155;-78
2024/04/02 09:36:51;;;;;;;0.10;0.10;;;16.90;72.50;;;17.49;33.84;96060.00;2329105;57;26135;-76
2024/04/02 09:39:21;;;;;;;1.12;0.25;;;16.80;72.80;;;17.31;34.52;96059.00;2328619;57;26550;-79
2024/04/02 09:41:51;;;;;;;0.60;0.20;;;16.80;73.00;;;17.31;34.38;96073.00;2328662;57;26496;-78
2024/04/02 09:44:33;;;;;;;0.30;0.10;;;16.60;73.10;;;17.07;34.82;96070.00;2328989;57;26092;-76
2024/04/02 09:47:01;;;;;;;0.17;0.17;;;16.40;72.30;;;16.82;34.49;96084.00;2328262;57;27016;-77
2024/04/02 09:49:28;;;;;;;0.37;0.20;;;16.30;72.50;;;16.85;34.60;96084.00;2329002;57;26135;-78
2024/04/02 09:52:00;;;;;;;4.87;0.30;;;16.60;72.80;;;17.21;34.40;96081.00;2328815;57;26951;-78
2024/04/02 09:54:30;;;;;;;0.40;0.40;;;16.40;72.90;;;16.86;34.93;96090.00;2327574;57;26495;-77
2024/04/02 09:57:05;;;;;;;0.93;0.28;;;15.90;72.20;;;16.21;34.99;96091.00;2328049;57;26672;-78
2024/04/02 09:59:32;;;;;;;3.72;0.25;;;15.70;73.00;;;15.98;35.45;96093.00;2328798;57;26655;-76
2024/04/02 10:01:59;;;;;;;0.43;0.28;;;15.80;73.90;;;16.35;35.76;96101.00;2329123;57;26940;-76
2024/04/02 10:04:27;;;;;;;0.10;0.10;;;15.90;73.40;;;16.41;35.23;96111.00;2327578;57;26545;-76
2024/04/02 10:06:57;;;;;;;0.25;0.22;;;15.90;73.90;;;16.63;35.38;96105.00;2328355;57;26896;-78
2024/04/02 10:09:42;;;;;;;0.20;0.20;;;15.80;74.60;;;16.21;36.64;96114.00;2327508;57;26095;-78
2024/04/02 10:12:08;;;;;;;0.20;0.20;;;15.80;75.40;;;16.34;36.77;96117.00;2327241;57;26974;-76
2024/04/02 10:14:37;;;;;;;2.85;0.13;;;15.80;74.30;;;16.16;36.22;96115.00;2328778;57;26554;-76
2024/04/02 10:17:14;;;;;;;0.13;0.13;;;16.00;76.00;;;16.55;36.75;96117.00;2328419;57;26186;-76
2024/04/02 10:19:46;;;;;;;0.55;0.10;;;16.20;74.90;;;16.83;36.54;96117.00;2328274;57;26527;-77
2024/04/02 10:22:39;;;;;;;0.10;0.10;;;16.40;72.60;;;16.85;34.83;96122.00;2327622;57;26144;-77
2024/04/02 10:25:12;;;;;;;0.20;0.20;;;16.50;72.80;;;17.05;34.34;96110.00;2328302;57;26545;-77
2024/04/02 10:27:47;;;;;;;0.47;0.13;;;16.30;72.90;;;16.75;35.18;96116.00;2327433;57;26871;-77
2024/04/02 10:30:26;;;;;;;0.45;0.17;;;16.40;75.10;;;16.97;36.48;96113.00;2327575;57;26107;-77